Impacts METAR Board
IDs:

KDCA - Washington/National, VA, US

Updated at: 0300 UTC 06 Dec 2019
Potential Impact None Slight Moderate High
Time 05/15Z 05/16Z 05/17Z 05/18Z 05/19Z 05/20Z 05/21Z 05/22Z 05/23Z 06/00Z 06/01Z 06/02Z 06/03Z
Temp43 46 48 47 48 48 47 46 44 44 44 42 40
Dewpt25 24 24 24 23 22 22 21 22 23 23 23 24
Altim29.97 29.98 29.98 29.97 29.99 30.00 30.04 30.06 30.09 30.12 30.13 30.15 30.17
VIS10 10 10 10 10 10 10 10 10 10 10 10 10
CIG50 55 -- -- -- -- -- -- -- -- -- -- 250
CoverOVCBKNSCTSCTFEWFEWFEWFEWFEWFEWCLRSCTBKN
FltCatVFRVFRVFRVFRVFRVFRVFRVFRVFRVFRVFRVFRVFR
WX--------------------------
WDir2902902802902803202902803202803003300
WSpd11 17 15 15 12 12 13 8 7 7 6 5 0
WGst21 24 23 25 18 22 16 15 -- -- -- -- --
Raw hourly METARs
KDCA 051452Z 29011G21KT 10SM OVC050 06/M04 A2997 RMK AO2 SLP147 T00611039 53033
KDCA 051552Z 29017G24KT 10SM BKN055 08/M04 A2998 RMK AO2 SLP152 T00781044
KDCA 051652Z 28015G23KT 10SM SCT055 09/M04 A2998 RMK AO2 PK WND 32026/1557 SLP152 T00891044
KDCA 051752Z 29015G25KT 10SM SCT055 08/M04 A2997 RMK AO2 SLP150 T00831044 10089 20044 50003
KDCA 051852Z 28012G18KT 10SM FEW060 09/M05 A2999 RMK AO2 SLP155 T00891050
KDCA 051952Z 32012G22KT 10SM FEW060 09/M06 A3000 RMK AO2 PK WND 28026/1911 SLP159 T00891056
KDCA 052052Z COR 29013G16KT 10SM FEW065 08/M06 A3004 RMK AO2 SLP172 T00831056 53022
KDCA 052152Z 28008G15KT 10SM FEW070 08/M06 A3006 RMK AO2 SLP178 T00781061
KDCA 052252Z 32007KT 10SM FEW075 07/M06 A3009 RMK AO2 SLP190 T00671056
KDCA 052352Z 28007KT 10SM FEW080 07/M05 A3012 RMK AO2 SLP198 T00671050 10094 20067 53026
KDCA 060052Z 30006KT 10SM CLR 07/M05 A3013 RMK AO2 SLP203 T00671050
KDCA 060152Z 33005KT 10SM SCT250 06/M05 A3015 RMK AO2 SLP210 T00561050
KDCA 060252Z 00000KT 10SM BKN250 04/M04 A3017 RMK AO2 SLP214 T00441044 51016



Page loaded:  03:49 UTC  |   07:49 PM Pacific  |   08:49 PM Mountain  |   09:49 PM Central  |   10:49 PM Eastern

 

ADVISORIES

FORECASTS

FORECASTS

OBSERVATIONS

USER TOOLS

ABOUT US